Time;durP1;ratioP1;P1;durP2;ratioP2;P2;SDS_P1;SDS_P2;PMS_P1;PMS_P2;Temp;Humidity;BMP_temperature;BMP_pressure;BME280_temperature;BME280_humidity;BME280_pressure;Samples;Min_cycle;Max_cycle;Signal;HPM_P1;HPM_P2
2024/03/09 00:01:54;;;;;;;5.83;4.80;;;;;;;17.05;50.20;100388.91;10451780;28;20287;-58
2024/03/09 00:07:01;;;;;;;6.30;4.55;;;;;;;17.02;50.87;100384.13;10453566;28;20348;-58
2024/03/09 00:12:02;;;;;;;5.20;4.47;;;;;;;17.07;49.05;100375.22;10451358;28;20055;-59
2024/03/09 00:17:02;;;;;;;6.95;4.85;;;;;;;17.07;50.73;100378.69;10444896;28;20025;-58
2024/03/09 00:22:04;;;;;;;6.78;4.78;;;;;;;17.02;50.91;100365.38;10452705;28;20025;-60
2024/03/09 00:27:07;;;;;;;6.85;5.57;;;;;;;17.06;50.29;100362.94;10452560;28;20025;-58
2024/03/09 00:32:08;;;;;;;5.85;4.80;;;;;;;17.06;49.29;100354.91;10451998;28;20021;-58
2024/03/09 00:37:08;;;;;;;5.40;4.43;;;;;;;17.04;50.43;100349.81;10452777;28;20021;-58
2024/03/09 00:42:09;;;;;;;5.53;4.57;;;;;;;17.05;48.76;100340.72;10451775;28;20586;-58
2024/03/09 00:47:09;;;;;;;6.60;5.50;;;;;;;17.04;49.26;100328.38;10451087;28;20313;-59
2024/03/09 00:52:10;;;;;;;6.90;5.30;;;;;;;17.01;49.14;100326.28;10451526;28;20024;-58
2024/03/09 00:57:10;;;;;;;5.95;5.03;;;;;;;17.03;50.36;100316.06;10451554;28;20358;-58
2024/03/09 01:02:11;;;;;;;5.78;4.68;;;;;;;17.03;50.97;100316.06;10450816;28;20041;-59
2024/03/09 01:07:13;;;;;;;7.80;4.88;;;;;;;17.01;49.68;100304.88;10451182;28;20029;-57
2024/03/09 01:12:15;;;;;;;5.82;4.78;;;;;;;17.03;49.76;100308.03;10450338;28;20052;-58
2024/03/09 01:17:17;;;;;;;7.18;5.57;;;;;;;17.03;49.45;100300.00;10450782;28;20013;-58
2024/03/09 01:22:19;;;;;;;6.43;5.25;;;;;;;17.01;49.08;100296.84;10449993;28;20033;-58
2024/03/09 01:27:20;;;;;;;6.30;5.10;;;;;;;17.03;50.96;100308.03;10448728;28;20098;-58
2024/03/09 01:32:22;;;;;;;6.60;5.10;;;;;;;17.01;50.37;100302.19;10442508;28;20582;-58
2024/03/09 01:37:22;;;;;;;7.18;5.72;;;;;;;17.02;49.79;100293.06;10450331;28;20036;-58
2024/03/09 01:42:23;;;;;;;6.55;5.28;;;;;;;17.05;48.84;100295.16;10449448;28;20029;-59
2024/03/09 01:47:25;;;;;;;6.00;5.32;;;;;;;17.01;49.22;100285.31;10449357;28;20024;-59
2024/03/09 01:52:31;;;;;;;5.57;4.88;;;;;;;16.98;50.70;100285.91;10449042;28;20025;-58
2024/03/09 01:57:32;;;;;;;8.98;5.60;;;;;;;17.00;50.32;100273.81;10449084;28;20456;-58
2024/03/09 02:02:33;;;;;;;5.53;4.97;;;;;;;17.03;50.51;100267.88;10448563;28;20029;-57
2024/03/09 02:07:35;;;;;;;6.10;5.18;;;;;;;17.04;50.50;100258.72;10435535;28;20033;-58
2024/03/09 02:12:36;;;;;;;7.45;5.13;;;;;;;16.99;49.34;100253.47;10448317;28;20037;-58
2024/03/09 02:17:37;;;;;;;6.65;5.20;;;;;;;17.06;49.80;100247.75;10448910;28;20377;-58
2024/03/09 02:22:40;;;;;;;7.03;5.30;;;;;;;17.05;49.67;100251.50;10447957;28;20023;-59
2024/03/09 02:27:42;;;;;;;7.13;6.00;;;;;;;17.01;50.94;100239.78;10446831;28;20071;-58
2024/03/09 02:32:43;;;;;;;5.30;4.80;;;;;;;17.02;48.77;100234.13;10446090;28;20060;-58
2024/03/09 02:37:43;;;;;;;5.57;4.65;;;;;;;17.01;50.42;100232.56;10447873;28;20124;-58
2024/03/09 02:48:03;;;;;;;7.07;5.13;;;;;;;17.01;50.39;100215.69;10435490;28;20350;-59
2024/03/09 02:53:03;;;;;;;7.35;5.72;;;;;;;17.01;49.17;100215.69;10447569;28;20711;-58
2024/03/09 02:58:03;;;;;;;6.88;5.35;;;;;;;17.04;49.77;100212.41;10446134;28;20024;-58
2024/03/09 03:08:23;;;;;;;6.00;5.40;;;;;;;17.02;49.02;100206.56;10447506;28;20033;-58
2024/03/09 03:13:23;;;;;;;7.47;6.18;;;;;;;17.09;48.54;100207.75;10453124;28;20053;-58
2024/03/09 03:18:24;;;;;;;6.78;5.40;;;;;;;17.11;48.72;100202.09;10455575;28;20029;-58
2024/03/09 03:23:24;;;;;;;7.28;5.38;;;;;;;17.03;48.68;100210.81;10453492;28;20083;-58
2024/03/09 03:28:24;;;;;;;7.40;5.80;;;;;;;17.03;48.51;100205.47;10455000;28;20021;-58
2024/03/09 03:33:27;;;;;;;6.75;5.10;;;;;;;17.05;48.88;100193.38;10454233;28;20271;-58
2024/03/09 03:38:27;;;;;;;6.43;5.45;;;;;;;16.98;49.18;100190.31;10454546;28;20021;-58
2024/03/09 03:43:28;;;;;;;7.20;5.20;;;;;;;17.03;50.25;100187.50;10454175;28;20458;-59
2024/03/09 03:48:29;;;;;;;6.00;4.72;;;;;;;17.01;48.86;100191.59;10454215;28;20464;-57
2024/03/09 03:53:30;;;;;;;6.72;5.00;;;;;;;17.00;50.22;100187.31;10453705;28;20017;-59
2024/03/09 03:58:30;;;;;;;7.18;5.70;;;;;;;17.04;49.12;100180.25;10453887;28;20480;-58
2024/03/09 04:03:37;;;;;;;6.60;4.80;;;;;;;17.08;49.51;100192.00;10451473;28;20037;-58
2024/03/09 04:08:37;;;;;;;6.20;5.28;;;;;;;17.02;49.58;100177.09;10453385;28;20021;-58
2024/03/09 04:13:37;;;;;;;7.13;5.40;;;;;;;16.97;49.80;100172.66;10452628;28;20413;-58
2024/03/09 04:18:38;;;;;;;7.07;5.50;;;;;;;16.98;49.41;100168.09;10452978;28;20267;-58
2024/03/09 04:23:38;;;;;;;6.70;4.50;;;;;;;17.00;49.38;100164.00;10451266;28;20380;-58
2024/03/09 04:28:38;;;;;;;7.47;5.77;;;;;;;17.00;49.22;100147.94;10451180;28;20287;-58
2024/03/09 04:33:40;;;;;;;7.07;4.90;;;;;;;17.01;48.87;100152.19;10451908;28;20271;-58
2024/03/09 04:38:40;;;;;;;5.50;4.47;;;;;;;17.03;49.68;100151.91;10452312;28;20284;-58
2024/03/09 04:43:41;;;;;;;7.07;5.33;;;;;;;17.03;49.24;100143.88;10451627;28;20499;-58
2024/03/09 04:48:41;;;;;;;5.80;4.80;;;;;;;17.12;49.37;100140.19;10450654;28;20291;-58
2024/03/09 04:53:41;;;;;;;7.83;4.87;;;;;;;17.10;48.68;100141.59;10451273;28;20086;-58
2024/03/09 04:58:42;;;;;;;5.57;4.97;;;;;;;17.14;48.25;100143.38;10451470;28;20279;-59
2024/03/09 05:03:42;;;;;;;6.65;4.50;;;;;;;17.08;50.13;100151.81;10450937;28;20275;-58
2024/03/09 05:08:44;;;;;;;6.25;4.35;;;;;;;17.08;49.19;100143.78;10450292;28;20029;-59
2024/03/09 05:13:47;;;;;;;5.82;4.43;;;;;;;17.09;48.97;100146.16;10448301;28;20041;-59
2024/03/09 05:18:49;;;;;;;5.93;4.78;;;;;;;17.05;49.85;100139.81;10444696;28;20023;-57
2024/03/09 05:23:52;;;;;;;6.10;5.03;;;;;;;17.08;49.40;100133.84;10447326;28;20056;-58
2024/03/09 05:28:56;;;;;;;5.72;4.90;;;;;;;17.10;48.36;100133.56;10446309;28;20031;-57
2024/03/09 05:33:56;;;;;;;6.35;4.70;;;;;;;17.03;49.00;100119.75;10445116;28;20111;-58
2024/03/09 05:38:57;;;;;;;7.30;5.45;;;;;;;17.10;48.54;100129.00;10442037;28;20529;-58
2024/03/09 05:43:57;;;;;;;6.30;5.07;;;;;;;17.08;49.07;100117.78;10445751;28;20170;-58
2024/03/09 05:48:58;;;;;;;6.55;4.88;;;;;;;17.10;48.20;100120.94;10447538;28;20295;-58
2024/03/09 05:53:58;;;;;;;7.68;5.93;;;;;;;17.11;48.09;100113.72;10445610;28;20225;-58
2024/03/09 05:58:58;;;;;;;7.03;5.40;;;;;;;17.06;48.68;100106.59;10447642;28;20037;-58
2024/03/09 06:03:59;;;;;;;7.57;5.50;;;;;;;17.11;48.51;100098.44;10445822;28;20282;-57
2024/03/09 06:08:59;;;;;;;5.47;4.03;;;;;;;17.03;49.47;100106.38;10447166;28;20298;-58
2024/03/09 06:14:00;;;;;;;14.38;6.40;;;;;;;17.10;50.62;100096.06;10446113;28;20068;-58
2024/03/09 06:19:00;;;;;;;12.27;6.20;;;;;;;17.16;50.19;100094.84;10447222;28;20017;-58
2024/03/09 06:24:00;;;;;;;18.13;6.70;;;;;;;17.25;49.05;100098.41;10448394;28;20271;-57
2024/03/09 06:29:00;;;;;;;14.87;5.90;;;;;;;17.21;50.50;100097.44;10444785;28;21096;-59
2024/03/09 06:34:02;;;;;;;15.47;6.70;;;;;;;17.21;51.53;100084.81;10447661;28;20405;-59
2024/03/09 06:39:04;;;;;;;13.32;6.07;;;;;;;17.17;51.01;100086.53;10448064;28;20276;-59
2024/03/09 06:44:08;;;;;;;13.50;6.10;;;;;;;17.14;51.44;100086.31;10447489;28;20753;-59
2024/03/09 06:49:09;;;;;;;15.15;7.43;;;;;;;17.08;51.04;100093.69;10446322;28;20060;-58
2024/03/09 06:54:11;;;;;;;10.33;5.47;;;;;;;17.05;50.75;100091.59;10447416;28;20053;-58
2024/03/09 06:59:12;;;;;;;18.55;6.82;;;;;;;17.12;52.65;100102.69;10447734;28;20271;-58
2024/03/09 07:04:13;;;;;;;13.30;7.13;;;;;;;17.16;53.00;100100.97;10447094;28;20112;-55
2024/03/09 07:09:14;;;;;;;14.88;7.32;;;;;;;17.18;53.67;100108.75;10447203;28;20419;-57
2024/03/09 07:14:14;;;;;;;15.65;6.90;;;;;;;17.06;53.31;100100.44;10445544;28;20068;-58
2024/03/09 07:19:14;;;;;;;15.17;6.17;;;;;;;17.05;52.12;100109.53;10446624;28;20021;-59
2024/03/09 07:24:15;;;;;;;18.85;7.13;;;;;;;17.09;53.10;100115.91;10446512;28;20286;-62
2024/03/09 07:29:15;;;;;;;18.48;7.30;;;;;;;17.06;52.20;100105.78;10437266;28;20038;-58
2024/03/09 07:34:17;;;;;;;17.17;6.88;;;;;;;17.00;52.67;100106.97;10443528;28;20125;-60
2024/03/09 07:39:18;;;;;;;12.88;6.90;;;;;;;16.99;51.94;100102.72;10446130;28;20017;-60
2024/03/09 07:44:23;;;;;;;10.60;7.50;;;;;;;16.98;51.48;100111.84;10443315;28;20029;-60
2024/03/09 07:49:23;;;;;;;13.43;7.03;;;;;;;17.00;51.32;100112.34;10428833;28;20370;-59
2024/03/09 07:54:24;;;;;;;12.93;6.97;;;;;;;16.98;51.71;100101.91;10438712;28;20029;-59
2024/03/09 07:59:25;;;;;;;15.77;7.47;;;;;;;17.04;51.44;100114.09;10449679;28;20275;-59
2024/03/09 08:04:27;;;;;;;12.90;7.32;;;;;;;17.09;50.05;100105.19;10453224;28;20313;-59
2024/03/09 08:09:28;;;;;;;12.18;7.30;;;;;;;17.06;49.89;100109.25;10452412;28;20116;-59
2024/03/09 08:14:33;;;;;;;14.40;7.43;;;;;;;17.04;50.36;100105.28;10452861;28;20061;-59
2024/03/09 08:19:36;;;;;;;11.88;7.20;;;;;;;17.01;50.17;100095.97;10452058;28;20427;-60
2024/03/09 08:24:36;;;;;;;11.40;7.00;;;;;;;17.04;49.83;100100.72;10448101;28;20450;-60
2024/03/09 08:29:37;;;;;;;9.47;6.30;;;;;;;17.01;49.88;100090.59;10444573;28;20033;-60
2024/03/09 08:34:37;;;;;;;12.70;6.93;;;;;;;17.01;49.37;100087.91;10450353;28;20271;-60
2024/03/09 08:39:37;;;;;;;10.05;6.60;;;;;;;17.05;50.62;100080.91;10451809;28;20276;-60
2024/03/09 08:44:39;;;;;;;11.73;6.78;;;;;;;17.05;49.87;100085.44;10451542;28;20025;-60
2024/03/09 08:49:39;;;;;;;12.75;7.45;;;;;;;17.10;49.61;100075.41;10449128;28;20021;-59
2024/03/09 08:54:41;;;;;;;9.52;6.47;;;;;;;17.12;48.58;100070.53;10447086;28;20040;-60
2024/03/09 08:59:42;;;;;;;11.32;6.80;;;;;;;17.07;50.68;100062.63;10446338;28;20086;-59
2024/03/09 09:04:42;;;;;;;10.15;6.47;;;;;;;17.09;50.57;100086.44;10450597;28;20032;-59
2024/03/09 09:09:43;;;;;;;9.32;6.22;;;;;;;17.03;49.97;100069.66;10450130;28;20028;-61
2024/03/09 09:14:44;;;;;;;9.68;5.95;;;;;;;17.02;50.30;100073.44;10450623;28;20045;-59
2024/03/09 09:19:44;;;;;;;14.88;6.45;;;;;;;16.95;51.47;100081.91;10449356;28;20024;-60
2024/03/09 09:24:44;;;;;;;15.67;7.13;;;;;;;17.00;51.41;100064.91;10445625;28;20025;-59
2024/03/09 09:29:45;;;;;;;13.10;6.77;;;;;;;17.00;51.34;100056.88;10448646;28;20302;-59
2024/03/09 09:34:45;;;;;;;10.43;6.18;;;;;;;16.99;51.16;100057.97;10448826;28;20326;-59
2024/03/09 09:39:46;;;;;;;11.02;5.82;;;;;;;16.95;50.72;100054.31;10443416;28;20629;-59
2024/03/09 09:44:48;;;;;;;9.73;6.80;;;;;;;16.98;50.38;100051.03;10449277;28;20053;-60
2024/03/09 09:49:48;;;;;;;8.55;6.30;;;;;;;16.97;50.28;100030.72;10448632;28;20072;-59
2024/03/09 09:54:51;;;;;;;12.25;6.82;;;;;;;16.95;50.23;100039.06;10447973;28;20112;-60
2024/03/09 09:59:51;;;;;;;10.40;5.93;;;;;;;16.97;51.70;100043.31;10447814;28;20078;-59
2024/03/09 10:04:51;;;;;;;9.80;5.93;;;;;;;16.94;51.23;100034.78;10448805;28;20077;-60
2024/03/09 10:09:52;;;;;;;12.77;6.38;;;;;;;16.98;50.48;100040.31;10448102;28;20029;-59
2024/03/09 10:14:52;;;;;;;10.37;7.43;;;;;;;16.96;51.04;100031.81;10446065;28;20045;-58
2024/03/09 10:19:52;;;;;;;11.45;6.75;;;;;;;16.95;50.54;100027.53;10443221;28;20287;-59
2024/03/09 10:24:56;;;;;;;11.27;6.30;;;;;;;16.99;50.62;100027.72;10446824;28;20103;-60
2024/03/09 10:30:10;;;;;;;10.20;6.75;;;;;;;16.98;51.01;100023.47;10447365;28;20295;-60
2024/03/09 10:35:11;;;;;;;10.68;6.07;;;;;;;17.02;50.21;99998.44;10446462;28;20039;-59
2024/03/09 10:40:12;;;;;;;10.82;5.72;;;;;;;17.02;50.30;99985.06;10447434;28;20116;-59
2024/03/09 10:45:17;;;;;;;10.00;6.10;;;;;;;17.03;51.15;99986.63;10445574;28;20133;-59
2024/03/09 10:50:23;;;;;;;9.02;5.57;;;;;;;17.03;51.14;99977.81;10443810;28;20021;-59
2024/03/09 10:55:29;;;;;;;10.70;6.63;;;;;;;17.08;51.51;99975.03;10446201;28;20361;-60
2024/03/09 11:00:29;;;;;;;9.93;7.22;;;;;;;17.06;51.22;99979.91;10447086;28;20024;-59
2024/03/09 11:05:30;;;;;;;12.07;6.93;;;;;;;17.03;51.34;99972.47;10447564;28;20484;-59
2024/03/09 11:10:31;;;;;;;13.40;6.38;;;;;;;16.92;51.69;99966.53;10444640;28;20330;-59
2024/03/09 11:15:36;;;;;;;10.45;6.95;;;;;;;16.88;50.75;99966.34;10447478;28;20021;-59
2024/03/09 11:20:59;;;;;;;10.43;7.30;;;;;;;16.85;50.82;99960.81;10434706;28;20044;-59
2024/03/09 11:26:00;;;;;;;11.82;7.97;;;;;;;16.82;50.44;99966.78;10445668;28;20555;-59
2024/03/09 11:31:10;;;;;;;11.25;7.22;;;;;;;16.81;50.79;99957.97;10447068;28;20033;-59
2024/03/09 11:36:43;;;;;;;21.52;9.05;;;;;;;16.92;52.32;99953.94;10454957;28;20029;-60
2024/03/09 11:41:45;;;;;;;14.85;8.35;;;;;;;16.95;53.76;99949.88;10440777;28;20049;-59
2024/03/09 11:46:46;;;;;;;13.75;8.65;;;;;;;16.95;53.60;99945.31;10453878;28;20032;-60
2024/03/09 11:51:47;;;;;;;15.95;8.55;;;;;;;17.02;53.55;99942.19;10452218;28;20047;-56
2024/03/09 11:56:47;;;;;;;13.43;7.80;;;;;;;16.95;52.01;99931.13;10450795;28;20044;-59
2024/03/09 12:01:49;;;;;;;14.52;7.90;;;;;;;16.93;52.04;99930.66;10453102;28;20880;-58
2024/03/09 12:06:50;;;;;;;12.82;7.63;;;;;;;16.90;51.81;99921.31;10453163;28;20378;-57
2024/03/09 12:11:50;;;;;;;9.68;6.40;;;;;;;16.88;52.97;99903.97;10450700;28;20520;-60
2024/03/09 12:16:51;;;;;;;19.58;7.38;;;;;;;16.86;52.27;99916.88;10440088;28;20115;-60
2024/03/09 12:21:52;;;;;;;14.10;7.57;;;;;;;16.89;52.10;99903.66;10442280;28;20029;-61
2024/03/09 12:26:52;;;;;;;16.95;7.47;;;;;;;16.87;52.11;99899.72;10438587;28;20032;-61
2024/03/09 12:31:55;;;;;;;17.95;9.10;;;;;;;16.85;52.15;99894.69;10450374;28;20040;-60
2024/03/09 12:36:57;;;;;;;17.15;8.55;;;;;;;16.84;52.31;99887.75;10446916;28;20029;-61
2024/03/09 12:42:01;;;;;;;16.92;7.95;;;;;;;16.81;52.34;99877.66;10438479;28;20694;-62
2024/03/09 12:47:02;;;;;;;13.30;7.53;;;;;;;16.80;51.71;99886.75;10450983;28;20029;-62
2024/03/09 12:52:05;;;;;;;11.18;6.80;;;;;;;16.79;53.06;99882.50;10449975;28;20064;-61
2024/03/09 12:57:07;;;;;;;16.65;7.10;;;;;;;16.76;52.65;99871.59;10443057;28;20027;-60
2024/03/09 13:02:09;;;;;;;16.02;7.63;;;;;;;16.74;52.99;99871.13;10451048;28;20031;-61
2024/03/09 13:07:14;;;;;;;14.07;7.28;;;;;;;16.82;51.79;99870.41;10451103;28;20028;-62
2024/03/09 13:12:14;;;;;;;13.95;7.47;;;;;;;16.84;52.88;99846.78;10450033;28;20874;-61
2024/03/09 13:17:16;;;;;;;12.48;7.65;;;;;;;16.74;51.60;99858.53;10441488;28;20037;-62
2024/03/09 13:22:17;;;;;;;15.70;8.45;;;;;;;16.67;52.46;99848.22;10449203;28;20024;-61
2024/03/09 13:27:17;;;;;;;15.50;8.30;;;;;;;16.67;52.59;99844.72;10448246;28;20027;-62
2024/03/09 13:32:18;;;;;;;14.03;7.03;;;;;;;16.66;51.68;99848.50;10448627;28;20021;-60
2024/03/09 13:37:18;;;;;;;11.10;7.30;;;;;;;16.62;51.73;99842.19;10448477;28;20354;-61
2024/03/09 13:42:19;;;;;;;11.23;7.07;;;;;;;16.61;52.42;99835.25;10446650;28;20055;-62
2024/03/09 13:47:19;;;;;;;13.90;7.80;;;;;;;16.64;52.89;99834.63;10448025;28;20271;-62
2024/03/09 13:52:23;;;;;;;15.87;9.27;;;;;;;16.63;51.67;99827.72;10448719;28;20282;-62
2024/03/09 13:57:25;;;;;;;12.32;7.28;;;;;;;16.63;52.64;99825.03;10449012;28;20323;-61
2024/03/09 14:02:25;;;;;;;12.32;7.85;;;;;;;16.63;52.13;99820.47;10448344;28;20112;-62
2024/03/09 14:07:27;;;;;;;11.68;6.88;;;;;;;16.69;51.28;99817.69;10447825;28;20495;-62
2024/03/09 14:12:27;;;;;;;11.52;6.25;;;;;;;16.69;51.73;99825.72;10446230;28;20540;-61
2024/03/09 14:17:28;;;;;;;11.60;6.70;;;;;;;16.70;51.57;99824.66;10437620;28;20021;-61
2024/03/09 14:22:28;;;;;;;11.02;6.97;;;;;;;16.84;53.12;99822.69;10447636;28;20275;-61
2024/03/09 14:27:30;;;;;;;15.18;7.90;;;;;;;16.99;52.60;99822.31;10447915;28;20021;-62
2024/03/09 14:32:37;;;;;;;13.73;8.02;;;;;;;16.99;52.45;99819.63;10445911;28;20056;-62
2024/03/09 14:37:43;;;;;;;22.23;7.50;;;;;;;16.99;51.46;99816.94;10440827;28;20040;-62
2024/03/09 14:42:52;;;;;;;16.30;8.00;;;;;;;17.02;52.65;99805.63;10444976;28;20033;-62
2024/03/09 14:47:54;;;;;;;24.02;7.15;;;;;;;16.99;52.37;99803.56;10445639;28;20065;-61
2024/03/09 14:52:55;;;;;;;14.05;7.30;;;;;;;17.02;51.55;99800.25;10446383;28;20511;-61
2024/03/09 14:57:56;;;;;;;19.33;7.97;;;;;;;16.91;53.10;99799.72;10445610;28;20040;-63
2024/03/09 15:02:56;;;;;;;19.98;7.60;;;;;;;16.85;53.23;99786.78;10443517;28;20183;-61
2024/03/09 15:07:57;;;;;;;21.03;8.37;;;;;;;16.82;53.17;99790.09;10449202;28;20070;-60
2024/03/09 15:12:57;;;;;;;29.50;8.05;;;;;;;16.81;52.52;99773.25;10450836;28;20775;-61
2024/03/09 15:17:59;;;;;;;18.30;7.38;;;;;;;16.79;52.65;99774.63;10439563;28;20025;-62
2024/03/09 15:22:59;;;;;;;16.65;8.07;;;;;;;16.76;52.52;99765.31;10443391;28;20111;-61
2024/03/09 15:27:59;;;;;;;16.00;6.40;;;;;;;16.77;52.24;99764.22;10449093;28;20150;-61
2024/03/09 15:33:00;;;;;;;18.00;7.18;;;;;;;16.78;52.31;99755.09;10450486;28;20280;-62
2024/03/09 15:38:02;;;;;;;17.63;7.50;;;;;;;16.78;53.79;99755.09;10454591;28;20051;-61
2024/03/09 15:43:06;;;;;;;12.95;6.85;;;;;;;16.78;52.68;99748.94;10452925;28;20568;-62
2024/03/09 15:48:09;;;;;;;18.95;8.25;;;;;;;16.78;52.84;99746.25;10439673;28;20407;-61
2024/03/09 15:53:11;;;;;;;16.02;7.00;;;;;;;16.78;54.55;99740.91;10453980;28;20513;-61
2024/03/09 15:58:11;;;;;;;19.75;7.30;;;;;;;16.77;53.41;99729.41;10453753;28;20716;-61
2024/03/09 16:03:11;;;;;;;14.20;7.03;;;;;;;16.76;54.23;99727.84;10453540;28;20029;-62
2024/03/09 16:08:12;;;;;;;12.35;6.25;;;;;;;16.76;53.56;99719.00;10453631;28;20828;-62
2024/03/09 16:13:12;;;;;;;20.10;6.90;;;;;;;16.74;54.50;99724.69;10451161;28;20048;-61
2024/03/09 16:18:14;;;;;;;17.20;7.53;;;;;;;16.72;55.10;99721.53;10453126;28;20283;-62
2024/03/09 16:23:17;;;;;;;12.13;6.78;;;;;;;16.71;55.02;99711.91;10452321;28;20496;-61
2024/03/09 16:28:20;;;;;;;19.45;7.60;;;;;;;16.78;54.45;99722.16;10436284;28;20029;-62
2024/03/09 16:33:21;;;;;;;14.70;6.30;;;;;;;16.83;53.35;99720.16;10445749;28;20029;-63
2024/03/09 16:38:23;;;;;;;10.80;5.80;;;;;;;16.94;54.02;99726.84;10442132;28;20013;-62
2024/03/09 16:43:26;;;;;;;11.75;7.43;;;;;;;17.07;52.93;99733.19;10442313;28;20032;-62
2024/03/09 16:48:29;;;;;;;11.27;7.63;;;;;;;17.16;53.36;99725.97;10448027;28;21098;-62
2024/03/09 16:53:30;;;;;;;11.80;8.75;;;;;;;17.34;53.95;99721.47;10447970;28;20031;-64
2024/03/09 16:58:31;;;;;;;13.05;8.20;;;;;;;17.58;55.41;99725.63;10449745;28;20103;-62
2024/03/09 17:03:31;;;;;;;16.80;8.50;;;;;;;17.56;57.17;99733.19;10450923;28;20024;-64
2024/03/09 17:08:36;;;;;;;20.00;7.97;;;;;;;17.49;56.57;99729.06;10451164;28;20103;-61
2024/03/09 17:13:40;;;;;;;18.65;7.75;;;;;;;17.45;55.31;99738.84;10450472;28;20057;-62
2024/03/09 17:18:40;;;;;;;15.40;8.57;;;;;;;17.47;56.98;99747.34;10450757;28;20082;-61
2024/03/09 17:23:41;;;;;;;12.23;7.57;;;;;;;17.48;55.89;99751.59;10449802;28;20074;-61
2024/03/09 17:28:41;;;;;;;15.80;7.47;;;;;;;17.49;56.59;99763.91;10449797;28;20853;-61
2024/03/09 17:33:42;;;;;;;11.63;6.43;;;;;;;17.52;55.48;99765.16;10450070;28;20283;-61
2024/03/09 17:38:46;;;;;;;18.30;8.50;;;;;;;17.51;54.93;99769.75;10450018;28;20271;-63
2024/03/09 17:43:47;;;;;;;30.10;8.02;;;;;;;17.33;55.03;99767.31;10449901;28;20025;-64
2024/03/09 17:48:48;;;;;;;21.42;6.82;;;;;;;17.24;55.67;99775.31;10448319;28;20036;-64
2024/03/09 17:53:48;;;;;;;16.38;6.82;;;;;;;17.31;55.45;99777.56;10446807;28;20449;-64
2024/03/09 17:58:48;;;;;;;17.70;7.17;;;;;;;17.29;55.65;99783.25;10449077;28;20103;-61
2024/03/09 18:03:50;;;;;;;17.65;6.90;;;;;;;17.24;54.19;99784.16;10448436;28;20370;-64
2024/03/09 18:08:50;;;;;;;16.38;6.80;;;;;;;17.08;55.38;99790.22;10446895;28;20112;-62
2024/03/09 18:13:51;;;;;;;14.20;6.73;;;;;;;17.11;53.57;99790.41;10448030;28;20522;-62
2024/03/09 18:18:51;;;;;;;18.75;6.68;;;;;;;17.06;53.71;99795.09;10436730;28;20299;-62
2024/03/09 18:23:52;;;;;;;12.70;6.53;;;;;;;17.05;53.86;99788.13;10442891;28;20074;-62
2024/03/09 18:28:52;;;;;;;20.90;8.60;;;;;;;17.07;53.68;99780.63;10441426;28;20029;-62
2024/03/09 18:33:53;;;;;;;20.70;7.68;;;;;;;17.12;55.00;99772.44;10441390;28;20044;-61
2024/03/09 18:38:54;;;;;;;17.38;7.53;;;;;;;17.10;54.84;99770.06;10440794;28;20388;-62
2024/03/09 18:43:57;;;;;;;11.53;6.23;;;;;;;17.13;54.65;99774.00;10428611;28;20170;-62
2024/03/09 18:48:57;;;;;;;17.83;7.13;;;;;;;17.16;54.29;99768.03;10442463;28;20428;-59
2024/03/09 18:53:57;;;;;;;13.80;6.18;;;;;;;17.15;54.25;99763.78;10439581;28;20683;-62
2024/03/09 18:58:58;;;;;;;8.50;5.43;;;;;;;17.13;54.49;99757.94;10442434;28;20021;-61
2024/03/09 19:03:58;;;;;;;14.70;6.25;;;;;;;17.12;54.11;99759.81;10442321;28;20116;-61
2024/03/09 19:08:59;;;;;;;12.85;6.28;;;;;;;17.14;55.30;99752.28;10438659;28;20033;-60
2024/03/09 19:13:59;;;;;;;15.60;7.23;;;;;;;17.19;54.91;99760.19;10441979;28;20052;-58
2024/03/09 19:19:00;;;;;;;12.90;6.68;;;;;;;17.18;55.11;99757.81;10442802;28;20306;-61
2024/03/09 19:24:04;;;;;;;11.82;6.05;;;;;;;17.16;55.08;99755.44;10442025;28;20361;-61
2024/03/09 19:29:06;;;;;;;13.68;5.82;;;;;;;17.16;54.50;99750.06;10442199;28;20377;-59
2024/03/09 19:34:08;;;;;;;10.98;5.47;;;;;;;17.16;54.65;99750.06;10442379;28;20022;-60
2024/03/09 19:39:10;;;;;;;9.90;5.60;;;;;;;17.16;54.68;99752.75;10442448;28;20024;-61
2024/03/09 19:44:13;;;;;;;9.48;5.30;;;;;;;17.17;54.09;99751.69;10440016;28;20037;-61
2024/03/09 19:49:15;;;;;;;13.35;5.65;;;;;;;17.15;53.50;99753.84;10441741;28;20146;-61
2024/03/09 19:54:17;;;;;;;13.60;5.88;;;;;;;17.18;53.84;99739.84;10445070;28;20028;-61
2024/03/09 19:59:18;;;;;;;11.18;5.15;;;;;;;17.14;53.67;99741.56;10448642;28;20052;-62
2024/03/09 20:04:19;;;;;;;10.02;5.57;;;;;;;17.15;53.25;99747.69;10447926;28;20100;-62
2024/03/09 20:09:19;;;;;;;10.20;5.38;;;;;;;17.18;52.58;99750.56;10449754;28;20033;-62
2024/03/09 20:14:19;;;;;;;9.43;5.37;;;;;;;17.20;54.04;99752.94;10448950;28;20041;-61
2024/03/09 20:19:20;;;;;;;15.30;5.32;;;;;;;17.21;52.88;99755.31;10434623;28;20279;-61
2024/03/09 20:24:20;;;;;;;10.63;4.78;;;;;;;17.20;52.93;99744.91;10449206;28;20028;-62
2024/03/09 20:29:20;;;;;;;11.38;5.30;;;;;;;17.23;52.47;99757.66;10447556;28;20017;-61
2024/03/09 20:34:21;;;;;;;5.78;4.68;;;;;;;17.21;53.56;99757.97;10448375;28;20032;-62
2024/03/09 20:39:21;;;;;;;7.17;4.73;;;;;;;17.24;52.62;99759.25;10447899;28;20272;-61
2024/03/09 20:44:22;;;;;;;8.13;5.63;;;;;;;17.27;51.98;99749.78;10447741;28;20812;-60
2024/03/09 20:49:22;;;;;;;7.03;4.53;;;;;;;17.25;52.93;99752.78;10438263;28;20380;-62
2024/03/09 20:54:36;;;;;;;9.50;4.70;;;;;;;17.30;52.60;99746.53;10443071;28;20349;-62
2024/03/09 20:59:38;;;;;;;5.10;3.67;;;;;;;17.31;52.08;99750.78;10439108;28;20104;-62
2024/03/09 21:04:38;;;;;;;9.27;5.38;;;;;;;17.31;51.61;99751.56;10449096;28;20029;-62
2024/03/09 21:09:38;;;;;;;7.55;5.03;;;;;;;17.31;52.78;99756.94;10450492;28;20029;-62
2024/03/09 21:14:39;;;;;;;6.20;4.55;;;;;;;17.25;52.36;99740.19;10449434;28;20578;-62
2024/03/09 21:19:39;;;;;;;6.88;4.20;;;;;;;17.32;52.67;99749.69;10450521;28;20104;-62
2024/03/09 21:24:40;;;;;;;6.70;4.03;;;;;;;17.30;52.05;99735.81;10450541;28;20028;-62
2024/03/09 21:29:41;;;;;;;6.15;3.88;;;;;;;17.29;52.94;99735.00;10449858;28;20094;-62
2024/03/09 21:34:41;;;;;;;5.65;4.38;;;;;;;17.31;51.78;99722.09;10448955;28;20028;-62
2024/03/09 21:39:41;;;;;;;6.00;4.27;;;;;;;17.30;52.03;99712.47;10449969;28;20024;-62
2024/03/09 21:44:41;;;;;;;5.43;3.67;;;;;;;17.29;53.02;99715.47;10449677;28;20271;-62
2024/03/09 21:49:42;;;;;;;6.27;3.87;;;;;;;17.27;52.73;99713.06;10449433;28;20784;-62
2024/03/09 21:54:44;;;;;;;6.05;4.03;;;;;;;17.29;51.80;99710.91;10450320;28;20271;-62
2024/03/09 21:59:44;;;;;;;6.82;3.95;;;;;;;17.29;52.78;99710.91;10448781;28;20021;-62
2024/03/09 22:04:44;;;;;;;4.95;3.92;;;;;;;17.27;52.00;99704.25;10448854;28;20029;-62
2024/03/09 22:09:45;;;;;;;6.43;3.77;;;;;;;17.29;52.02;99700.19;10448312;28;20503;-62
2024/03/09 22:14:45;;;;;;;5.45;4.28;;;;;;;17.29;52.28;99691.34;10448617;28;20292;-62
2024/03/09 22:19:45;;;;;;;6.63;4.17;;;;;;;17.24;51.11;99684.22;10434901;28;20112;-62
2024/03/09 22:24:46;;;;;;;7.17;4.13;;;;;;;17.29;52.25;99684.09;10448418;28;20275;-62
2024/03/09 22:29:47;;;;;;;6.18;3.70;;;;;;;17.33;50.93;99686.94;10447899;28;20298;-62
2024/03/09 22:34:48;;;;;;;5.63;4.00;;;;;;;17.33;52.42;99685.06;10448320;28;20445;-62
2024/03/09 22:39:48;;;;;;;4.50;3.28;;;;;;;17.30;51.65;99680.31;10447796;28;20826;-62
2024/03/09 22:44:49;;;;;;;4.15;3.22;;;;;;;17.30;52.43;99692.94;10447918;28;20044;-62
2024/03/09 22:49:49;;;;;;;5.97;4.00;;;;;;;17.32;51.29;99696.09;10447500;28;20029;-62
2024/03/09 22:54:50;;;;;;;4.72;4.00;;;;;;;17.28;51.98;99698.56;10447573;28;20288;-62
2024/03/09 22:59:50;;;;;;;5.28;3.70;;;;;;;17.25;51.89;99691.97;10447354;28;20040;-62
2024/03/09 23:04:52;;;;;;;5.40;3.90;;;;;;;17.31;52.40;99699.88;10447500;28;20021;-62
2024/03/09 23:09:53;;;;;;;5.97;4.07;;;;;;;17.28;51.61;99692.44;10436461;28;20498;-62
2024/03/09 23:14:53;;;;;;;5.90;3.90;;;;;;;17.27;52.43;99685.50;10440856;28;20053;-62